Time;durP1;ratioP1;P1;durP2;ratioP2;P2;SDS_P1;SDS_P2;PMS_P1;PMS_P2;Temp;Humidity;BMP_temperature;BMP_pressure;BME280_temperature;BME280_humidity;BME280_pressure;Samples;Min_cycle;Max_cycle;Signal;HPM_P1;HPM_P2
2022/08/12 00:44:45;;;;;;;6.72;3.80;;;24.10;56.90;;;;;;5076337;28;20196;-79
2022/08/12 00:47:14;;;;;;;5.22;3.80;;;23.90;57.50;;;;;;5075218;28;20212;-79
2022/08/12 00:49:43;;;;;;;4.65;3.55;;;23.80;58.10;;;;;;5072421;28;20200;-79
2022/08/12 00:52:11;;;;;;;4.20;3.28;;;23.50;58.00;;;;;;5068217;28;20226;-79
2022/08/12 00:54:42;;;;;;;4.13;3.72;;;23.50;58.80;;;;;;5075240;28;20212;-79
2022/08/12 00:57:11;;;;;;;6.88;3.75;;;23.50;59.10;;;;;;5076772;28;20229;-79
2022/08/12 00:59:45;;;;;;;4.50;3.67;;;23.60;59.40;;;;;;5074533;28;20706;-79
2022/08/12 01:02:21;;;;;;;4.07;3.33;;;23.80;59.00;;;;;;5073980;28;20182;-79
2022/08/12 01:13:30;;;;;;;4.28;3.88;;;23.90;58.20;;;;;;5075344;28;20205;-79
2022/08/12 01:15:59;;;;;;;4.68;3.78;;;23.90;58.20;;;;;;5066903;28;20212;-79
2022/08/12 01:18:28;;;;;;;4.25;3.70;;;23.80;58.60;;;;;;5073719;28;20217;-79
2022/08/12 01:21:11;;;;;;;5.35;3.75;;;23.70;58.50;;;;;;5073461;28;20228;-79
2022/08/12 01:24:12;;;;;;;3.88;3.40;;;23.60;59.00;;;;;;5072519;28;20656;-79
2022/08/12 01:26:42;;;;;;;4.38;3.97;;;23.60;59.40;;;;;;5072474;28;20205;-80
2022/08/12 01:29:13;;;;;;;4.10;3.70;;;23.50;59.90;;;;;;5076082;28;20177;-79
2022/08/12 01:31:54;;;;;;;6.18;3.70;;;23.40;60.60;;;;;;5071220;28;20549;-79
2022/08/12 01:34:28;;;;;;;3.65;3.35;;;23.50;60.60;;;;;;5072249;28;20200;-79
2022/08/12 01:36:59;;;;;;;4.03;3.72;;;23.60;60.70;;;;;;5074155;28;20222;-79
2022/08/12 01:39:30;;;;;;;3.60;3.30;;;23.80;60.20;;;;;;5068878;28;20213;-79
2022/08/12 01:42:04;;;;;;;4.43;3.65;;;23.90;59.60;;;;;;5074179;28;20201;-79
2022/08/12 01:44:32;;;;;;;5.40;4.30;;;23.80;59.40;;;;;;5070954;28;20198;-79
2022/08/12 01:47:10;;;;;;;4.50;3.90;;;23.80;59.30;;;;;;5068987;28;20229;-79
2022/08/12 01:49:49;;;;;;;4.72;3.83;;;23.60;59.70;;;;;;5075736;28;20189;-79
2022/08/12 01:52:30;;;;;;;4.70;3.58;;;23.80;59.90;;;;;;5068168;28;20240;-79
2022/08/12 01:54:59;;;;;;;4.18;3.60;;;23.70;59.80;;;;;;5074841;28;20209;-79
2022/08/12 01:57:38;;;;;;;3.92;3.63;;;23.80;59.90;;;;;;5074117;28;20730;-79
2022/08/12 02:00:12;;;;;;;4.07;3.67;;;23.80;59.80;;;;;;5071798;28;20211;-79
2022/08/12 02:02:45;;;;;;;5.63;4.10;;;23.80;59.60;;;;;;5066989;28;20199;-79
2022/08/12 02:11:28;;;;;;;4.10;3.67;;;23.80;59.90;;;;;;5072649;28;20190;-79
2022/08/12 02:14:20;;;;;;;4.88;4.00;;;23.80;59.80;;;;;;5068946;28;20224;-79
2022/08/12 02:17:05;;;;;;;6.10;3.90;;;23.80;60.00;;;;;;5074556;28;20924;-79
2022/08/12 02:19:48;;;;;;;4.90;4.10;;;23.80;60.30;;;;;;5072827;28;20192;-79
2022/08/12 02:22:26;;;;;;;4.75;4.18;;;23.80;60.50;;;;;;5074123;28;20186;-79
2022/08/12 02:24:59;;;;;;;4.68;4.18;;;23.70;60.60;;;;;;5070516;28;20201;-79
2022/08/12 02:27:27;;;;;;;4.80;4.35;;;23.70;60.90;;;;;;5072131;28;20213;-79
2022/08/12 02:29:57;;;;;;;4.57;4.28;;;23.60;61.10;;;;;;5071520;28;20193;-80
2022/08/12 02:32:24;;;;;;;5.53;4.35;;;23.60;61.40;;;;;;5066253;28;20216;-79
2022/08/12 02:34:52;;;;;;;4.07;3.78;;;23.60;61.80;;;;;;5072520;28;20204;-79
2022/08/12 02:37:22;;;;;;;4.95;4.30;;;23.60;62.20;;;;;;5071814;28;20233;-79
2022/08/12 02:39:52;;;;;;;4.50;4.00;;;23.40;62.60;;;;;;5066019;28;20201;-79
2022/08/12 02:42:22;;;;;;;7.15;4.10;;;23.10;64.00;;;;;;5061299;28;20206;-79
2022/08/12 02:44:53;;;;;;;4.70;4.20;;;23.20;64.30;;;;;;5072244;28;20205;-79
2022/08/12 02:47:23;;;;;;;4.90;4.40;;;23.20;64.40;;;;;;5070900;28;20229;-79
2022/08/12 02:49:54;;;;;;;6.70;4.38;;;23.30;64.30;;;;;;5071526;28;20225;-79
2022/08/12 02:52:25;;;;;;;4.80;4.47;;;23.20;64.70;;;;;;5069663;28;20194;-79
2022/08/12 02:55:00;;;;;;;4.53;4.20;;;23.30;64.90;;;;;;5070334;28;20683;-79
2022/08/12 02:57:28;;;;;;;5.55;3.90;;;23.30;64.90;;;;;;5068560;28;20224;-79
2022/08/12 02:59:56;;;;;;;7.10;4.80;;;23.10;65.80;;;;;;5073028;28;20193;-79
2022/08/12 03:02:30;;;;;;;5.80;4.25;;;23.20;66.00;;;;;;5070370;28;20571;-79
2022/08/12 03:04:58;;;;;;;6.03;4.50;;;23.00;66.20;;;;;;5072413;28;20549;-79
2022/08/12 03:07:31;;;;;;;5.82;4.25;;;23.00;66.70;;;;;;5070684;28;20221;-79
2022/08/12 03:10:12;;;;;;;5.78;4.50;;;22.90;67.20;;;;;;5069195;28;20200;-79
2022/08/12 03:12:43;;;;;;;5.68;4.88;;;22.50;68.60;;;;;;5072561;28;20202;-79
2022/08/12 03:15:12;;;;;;;4.68;4.25;;;22.30;70.30;;;;;;5074615;28;20197;-79
2022/08/12 03:17:51;;;;;;;4.60;4.20;;;22.30;72.70;;;;;;5058544;28;20217;-79
2022/08/12 03:20:21;;;;;;;4.40;4.00;;;22.70;72.20;;;;;;5063001;28;20210;-79
2022/08/12 03:22:55;;;;;;;4.20;3.88;;;22.80;71.40;;;;;;5072156;28;20200;-79
2022/08/12 03:25:26;;;;;;;7.00;4.82;;;22.90;70.40;;;;;;5066388;28;20189;-79
2022/08/12 03:27:55;;;;;;;5.28;4.65;;;22.80;70.70;;;;;;5072972;28;20224;-79
2022/08/12 03:30:25;;;;;;;4.82;4.43;;;22.60;72.70;;;;;;5073878;28;20185;-79
2022/08/12 03:32:56;;;;;;;6.30;5.22;;;22.70;73.00;;;;;;5070928;28;20228;-79
2022/08/12 03:35:25;;;;;;;6.22;4.88;;;22.60;73.20;;;;;;5065275;28;20547;-79
2022/08/12 03:37:56;;;;;;;5.15;4.65;;;22.20;75.40;;;;;;5070828;28;20663;-79
2022/08/12 04:00:23;;;;;;;8.85;5.20;;;22.80;73.80;;;;;;5068321;28;20204;-79
2022/08/12 04:02:57;;;;;;;6.13;5.50;;;22.80;73.70;;;;;;5072089;28;20209;-79
2022/08/12 04:05:27;;;;;;;5.65;5.25;;;22.80;73.70;;;;;;5073228;28;20181;-79
2022/08/12 04:07:58;;;;;;;5.47;4.97;;;22.80;74.10;;;;;;5067605;28;20691;-79
2022/08/12 04:13:14;;;;;;;5.30;4.82;;;22.80;74.10;;;;;;5070913;28;20204;-79
2022/08/12 04:13:20;;;;;;;5.80;5.20;;;22.80;73.80;;;;;;5072264;28;20206;-79
2022/08/12 04:15:48;;;;;;;5.55;5.15;;;22.80;73.90;;;;;;5070676;28;20190;-79
2022/08/12 04:18:33;;;;;;;6.55;5.78;;;22.80;74.00;;;;;;5071469;28;20213;-79
2022/08/12 04:21:03;;;;;;;5.35;4.85;;;22.80;73.70;;;;;;5060362;28;20680;-79
2022/08/12 04:23:32;;;;;;;4.90;4.50;;;22.80;73.50;;;;;;5072435;28;20189;-79
2022/08/12 04:25:59;;;;;;;5.72;4.95;;;22.80;73.70;;;;;;5072026;28;20218;-79
2022/08/12 04:28:28;;;;;;;6.47;5.47;;;22.80;74.00;;;;;;5071748;28;20217;-78
2022/08/12 04:30:56;;;;;;;6.18;5.63;;;22.80;74.40;;;;;;5071650;28;20217;-79
2022/08/12 04:33:25;;;;;;;5.53;5.03;;;22.70;74.90;;;;;;5073831;28;20202;-79
2022/08/12 04:35:58;;;;;;;7.57;5.35;;;22.50;76.20;;;;;;5078882;28;20198;-79
2022/08/12 04:38:30;;;;;;;5.60;5.13;;;22.60;76.10;;;;;;5067063;28;20228;-79
2022/08/12 04:40:58;;;;;;;6.38;5.72;;;22.60;76.30;;;;;;5066181;28;20221;-79
2022/08/12 04:43:25;;;;;;;7.15;5.25;;;22.60;76.40;;;;;;5071491;28;20193;-79
2022/08/12 04:45:53;;;;;;;5.72;5.22;;;22.60;76.60;;;;;;5068077;28;20568;-79
2022/08/12 04:48:21;;;;;;;5.55;4.80;;;22.60;76.50;;;;;;5071164;28;20570;-79
2022/08/12 04:50:48;;;;;;;6.35;5.72;;;22.60;76.40;;;;;;5067328;28;20197;-79
2022/08/12 04:53:17;;;;;;;5.72;5.22;;;22.60;76.30;;;;;;5070470;28;20217;-78
2022/08/12 04:55:47;;;;;;;7.43;5.70;;;22.60;76.30;;;;;;5071605;28;20190;-78
2022/08/12 04:58:14;;;;;;;5.32;4.90;;;22.60;76.30;;;;;;5070237;28;20221;-78
2022/08/12 05:00:42;;;;;;;6.28;5.28;;;22.50;77.00;;;;;;5071210;28;20202;-79
2022/08/12 05:03:10;;;;;;;6.60;5.75;;;22.50;77.00;;;;;;5070308;28;20217;-79
2022/08/12 05:05:39;;;;;;;5.53;4.95;;;22.60;77.20;;;;;;5054635;28;20206;-79
2022/08/12 05:08:11;;;;;;;6.78;5.10;;;22.60;76.90;;;;;;5074825;28;20218;-79
2022/08/12 05:10:39;;;;;;;6.22;5.45;;;22.70;77.00;;;;;;5072875;28;20189;-79
2022/08/12 05:13:10;;;;;;;7.43;5.50;;;22.70;77.20;;;;;;5066907;28;20205;-79
2022/08/12 05:15:39;;;;;;;6.95;5.53;;;22.70;77.30;;;;;;5058915;28;20204;-79
2022/08/12 05:18:07;;;;;;;5.97;5.30;;;22.60;78.60;;;;;;5067591;28;20233;-80
2022/08/12 05:20:37;;;;;;;6.78;5.75;;;22.70;78.90;;;;;;5068607;28;20213;-80
2022/08/12 05:23:18;;;;;;;8.00;6.10;;;22.60;79.40;;;;;;5062943;28;20585;-79
2022/08/12 05:25:49;;;;;;;7.30;6.03;;;22.70;79.60;;;;;;5072976;28;20209;-80
2022/08/12 05:28:18;;;;;;;10.13;6.25;;;22.80;79.50;;;;;;5072486;28;20232;-81
2022/08/12 05:31:31;;;;;;;7.32;6.53;;;22.90;79.60;;;;;;5079267;28;20210;-79
2022/08/12 05:33:59;;;;;;;6.82;6.15;;;22.90;79.20;;;;;;4977929;28;20215;-80
2022/08/12 05:36:26;;;;;;;9.70;6.75;;;23.00;79.10;;;;;;5070687;28;20202;-79
2022/08/12 05:38:57;;;;;;;7.18;6.47;;;23.00;79.20;;;;;;5074177;28;20225;-79
2022/08/12 05:41:25;;;;;;;10.77;6.45;;;23.00;79.50;;;;;;5072327;28;20205;-80
2022/08/12 05:43:57;;;;;;;8.48;7.20;;;23.00;79.50;;;;;;5076871;28;20205;-80
2022/08/12 05:46:27;;;;;;;10.35;7.25;;;23.10;79.60;;;;;;5067051;28;20252;-80
2022/08/12 05:48:55;;;;;;;8.00;7.20;;;23.10;79.70;;;;;;5067816;28;20233;-80
2022/08/12 05:51:24;;;;;;;10.07;7.60;;;23.20;79.80;;;;;;5068096;28;20217;-80
2022/08/12 05:53:52;;;;;;;9.90;7.90;;;23.20;80.10;;;;;;5067087;28;20212;-80
2022/08/12 05:56:25;;;;;;;9.82;7.03;;;23.20;80.10;;;;;;5073815;28;20201;-80
2022/08/12 05:58:56;;;;;;;8.15;7.35;;;23.30;79.90;;;;;;5074799;28;20231;-81
2022/08/12 06:01:25;;;;;;;10.85;7.60;;;23.30;79.60;;;;;;5068970;28;20200;-79
2022/08/12 06:03:57;;;;;;;9.73;6.47;;;23.40;79.80;;;;;;5075163;28;20212;-79
2022/08/12 06:06:25;;;;;;;9.52;7.32;;;23.40;80.10;;;;;;5068731;28;20218;-80
2022/08/12 06:08:54;;;;;;;8.75;7.15;;;23.40;80.50;;;;;;5045964;28;20234;-79
2022/08/12 06:11:23;;;;;;;8.35;6.93;;;23.50;81.10;;;;;;5056763;28;20198;-80
2022/08/12 06:13:51;;;;;;;9.88;6.20;;;23.50;81.50;;;;;;5059663;28;20217;-79
2022/08/12 06:16:22;;;;;;;7.20;6.50;;;23.60;81.20;;;;;;5056055;28;20198;-79
2022/08/12 06:18:50;;;;;;;7.65;6.30;;;23.70;81.20;;;;;;5052967;28;20225;-79
2022/08/12 06:21:24;;;;;;;7.28;6.18;;;23.70;81.10;;;;;;5057141;28;20291;-79
2022/08/12 06:23:57;;;;;;;8.30;7.10;;;23.80;81.50;;;;;;5049994;28;20575;-80
2022/08/12 06:26:24;;;;;;;9.52;6.88;;;23.70;82.50;;;;;;5055157;28;20195;-79
2022/08/12 06:28:53;;;;;;;7.32;6.63;;;23.60;83.30;;;;;;5056138;28;20810;-79
2022/08/12 06:31:22;;;;;;;9.10;6.93;;;23.50;84.50;;;;;;5053359;28;20198;-79
2022/08/12 06:33:50;;;;;;;7.93;6.45;;;23.70;84.30;;;;;;5052403;28;20199;-79
2022/08/12 06:36:21;;;;;;;8.65;7.35;;;23.90;84.10;;;;;;5055137;28;20288;-80
2022/08/12 06:38:49;;;;;;;7.05;6.35;;;24.00;84.00;;;;;;5051696;28;20233;-79
2022/08/12 06:44:02;;;;;;;9.50;6.90;;;24.10;84.10;;;;;;5055611;28;20201;-80
2022/08/12 06:46:31;;;;;;;10.38;7.63;;;24.10;84.50;;;;;;5055326;28;20194;-79
2022/08/12 06:48:59;;;;;;;9.48;6.65;;;24.10;85.20;;;;;;5050734;28;20199;-79
2022/08/12 06:51:29;;;;;;;10.65;6.47;;;24.20;85.00;;;;;;5041838;28;20195;-79
2022/08/12 06:53:56;;;;;;;6.90;6.20;;;24.20;84.80;;;;;;5051374;28;20202;-80
2022/08/12 06:56:24;;;;;;;8.52;6.80;;;24.30;84.40;;;;;;5048068;28;20209;-81
2022/08/12 06:58:52;;;;;;;8.82;6.47;;;24.30;84.00;;;;;;5058142;28;20246;-81
2022/08/12 07:01:22;;;;;;;10.23;6.80;;;24.30;84.70;;;;;;5077017;28;20201;-81
2022/08/12 07:03:54;;;;;;;12.38;6.65;;;24.30;83.60;;;;;;5056078;28;20206;-80
2022/08/12 07:06:22;;;;;;;10.70;6.15;;;24.40;83.60;;;;;;5059135;28;20198;-80
2022/08/12 07:08:50;;;;;;;10.18;6.75;;;24.40;83.60;;;;;;5056916;28;20678;-80
2022/08/12 07:11:18;;;;;;;9.13;7.15;;;24.50;83.30;;;;;;5047163;28;20199;-80
2022/08/12 07:13:51;;;;;;;9.48;6.22;;;24.60;82.80;;;;;;5058298;28;20203;-82
2022/08/12 07:16:21;;;;;;;9.20;6.05;;;24.60;82.80;;;;;;5054172;28;20202;-82
2022/08/12 07:18:50;;;;;;;8.52;6.47;;;24.70;82.30;;;;;;5067350;28;20218;-82
2022/08/12 07:21:19;;;;;;;12.70;6.70;;;24.80;81.50;;;;;;5064101;28;20198;-82
2022/08/12 07:23:48;;;;;;;11.27;6.25;;;24.70;81.00;;;;;;5058594;28;20218;-82
2022/08/12 07:26:18;;;;;;;8.70;6.68;;;24.80;80.80;;;;;;5060169;28;20194;-83
2022/08/12 07:28:49;;;;;;;9.43;6.18;;;24.80;80.90;;;;;;5063769;28;20214;-82
2022/08/12 07:31:18;;;;;;;6.30;5.70;;;24.90;79.90;;;;;;5084064;28;20202;-82
2022/08/12 07:33:48;;;;;;;7.50;5.10;;;25.00;76.30;;;;;;5059184;28;20201;-83
2022/08/12 07:36:16;;;;;;;5.43;4.93;;;25.10;72.30;;;;;;5070593;28;20198;-83
2022/08/12 07:38:47;;;;;;;5.00;4.60;;;25.20;70.10;;;;;;5067414;28;20224;-83
2022/08/12 07:41:17;;;;;;;7.05;5.15;;;25.30;66.60;;;;;;5062978;28;20214;-83
2022/08/12 07:43:50;;;;;;;8.50;4.65;;;25.30;69.10;;;;;;5085830;28;20219;-83
2022/08/12 07:46:20;;;;;;;5.57;4.47;;;25.40;68.50;;;;;;5081695;28;20195;-83
2022/08/12 07:48:49;;;;;;;7.40;4.32;;;25.50;66.00;;;;;;5062331;28;20215;-83
2022/08/12 07:51:18;;;;;;;4.72;4.30;;;25.60;62.20;;;;;;5097924;28;20199;-82
2022/08/12 07:53:47;;;;;;;4.20;3.90;;;25.60;64.20;;;;;;5060768;28;20194;-82
2022/08/12 07:56:16;;;;;;;4.65;4.20;;;25.80;62.20;;;;;;5080294;28;20194;-82
2022/08/12 07:58:45;;;;;;;5.18;4.20;;;25.80;60.60;;;;;;5050651;28;20218;-82
2022/08/12 08:01:16;;;;;;;5.63;4.43;;;25.80;61.10;;;;;;5047983;28;20211;-82
2022/08/12 08:06:27;;;;;;;6.45;4.15;;;25.90;61.60;;;;;;5050534;28;20200;-83
2022/08/12 08:08:55;;;;;;;5.80;4.18;;;26.00;60.50;;;;;;5064191;28;20222;-83
2022/08/12 08:14:09;;;;;;;5.45;4.90;;;26.20;61.30;;;;;;5057944;28;20226;-82
2022/08/12 08:16:38;;;;;;;9.70;4.65;;;26.20;60.90;;;;;;5071010;28;20207;-82
2022/08/12 08:19:05;;;;;;;7.38;4.60;;;26.30;60.20;;;;;;5065307;28;20207;-82
2022/08/12 08:21:34;;;;;;;6.90;4.50;;;26.30;60.60;;;;;;5058234;28;20675;-82
2022/08/12 08:24:15;;;;;;;9.00;4.95;;;26.50;60.50;;;;;;5069445;28;20218;-82
2022/08/12 08:26:46;;;;;;;5.18;4.40;;;26.50;59.40;;;;;;5062431;28;20198;-82
2022/08/12 08:29:14;;;;;;;6.35;4.60;;;26.60;58.80;;;;;;5066237;28;20256;-82
2022/08/12 08:31:45;;;;;;;8.70;4.43;;;26.60;58.70;;;;;;5069216;28;20198;-82
2022/08/12 08:34:13;;;;;;;5.47;4.40;;;26.70;57.90;;;;;;5082570;28;20209;-82
2022/08/12 08:36:42;;;;;;;4.95;4.50;;;26.70;58.60;;;;;;5057730;28;20195;-82
2022/08/12 08:39:13;;;;;;;6.95;4.70;;;26.80;58.50;;;;;;5068441;28;20213;-83
2022/08/12 08:44:25;;;;;;;7.90;4.55;;;26.90;57.70;;;;;;5079792;28;20214;-83
2022/08/12 08:46:54;;;;;;;8.48;4.40;;;27.00;56.50;;;;;;5061499;28;20230;-83
2022/08/12 08:49:22;;;;;;;4.28;3.88;;;26.90;55.80;;;;;;5066855;28;20213;-83
2022/08/12 08:51:53;;;;;;;7.93;3.72;;;27.10;55.40;;;;;;5057002;28;20203;-83
2022/08/12 08:54:23;;;;;;;5.13;3.85;;;27.00;54.60;;;;;;5070625;28;20201;-83
2022/08/12 08:56:51;;;;;;;3.88;3.50;;;27.00;54.00;;;;;;5059555;28;20195;-83
2022/08/12 08:59:20;;;;;;;4.68;3.22;;;27.10;52.00;;;;;;5057221;28;20665;-83
2022/08/12 09:01:48;;;;;;;4.45;3.33;;;27.20;51.40;;;;;;5063758;28;20571;-82
2022/08/12 09:04:16;;;;;;;4.28;3.13;;;27.30;49.90;;;;;;5073331;28;20234;-82
2022/08/12 09:06:44;;;;;;;2.65;2.45;;;27.30;49.70;;;;;;5059157;28;20194;-83
2022/08/12 09:09:13;;;;;;;3.45;3.00;;;27.50;46.00;;;;;;5052246;28;20193;-84
2022/08/12 09:14:38;;;;;;;5.28;2.78;;;27.60;45.30;;;;;;5051998;28;20206;-82
2022/08/12 09:17:05;;;;;;;5.18;2.72;;;27.70;44.00;;;;;;5051941;28;20556;-82
2022/08/12 09:19:36;;;;;;;4.45;2.65;;;27.70;44.50;;;;;;5050914;28;20516;-83
2022/08/12 09:22:07;;;;;;;4.57;3.08;;;27.80;44.20;;;;;;5050272;28;20215;-81
2022/08/12 09:24:35;;;;;;;3.10;2.55;;;27.80;43.70;;;;;;5050403;28;21777;-82
2022/08/12 09:27:07;;;;;;;2.58;2.33;;;27.90;45.10;;;;;;5048884;28;20249;-83
2022/08/12 09:29:34;;;;;;;2.63;2.42;;;27.90;42.00;;;;;;5054134;28;20194;-83
2022/08/12 09:32:05;;;;;;;4.22;2.70;;;27.90;41.00;;;;;;5050786;28;20199;-82
2022/08/12 09:34:37;;;;;;;4.63;2.33;;;28.00;41.50;;;;;;5053643;28;20199;-83
2022/08/12 09:37:06;;;;;;;2.67;2.05;;;28.00;41.10;;;;;;5056775;28;20237;-83
2022/08/12 09:39:33;;;;;;;2.67;2.47;;;28.10;40.40;;;;;;5052488;28;20863;-83
2022/08/12 09:47:44;;;;;;;3.10;2.80;;;28.20;39.40;;;;;;5050450;28;20288;-83
2022/08/12 09:50:15;;;;;;;4.05;2.88;;;28.20;39.10;;;;;;5053832;28;20206;-83
2022/08/12 09:52:44;;;;;;;2.25;2.05;;;28.20;40.30;;;;;;5067120;28;20198;-83
2022/08/12 09:55:11;;;;;;;5.13;2.90;;;28.30;40.10;;;;;;5052640;28;20665;-83
2022/08/12 09:57:41;;;;;;;3.60;2.58;;;28.40;41.40;;;;;;5056339;28;20218;-83
2022/08/12 10:00:11;;;;;;;2.65;2.42;;;28.40;40.10;;;;;;5054620;28;20213;-83
2022/08/12 10:02:58;;;;;;;4.78;2.22;;;28.50;40.10;;;;;;5050070;28;20211;-81
2022/08/12 10:05:26;;;;;;;4.38;2.85;;;28.50;38.70;;;;;;5052074;28;20202;-82
2022/08/12 10:07:55;;;;;;;3.00;2.40;;;28.40;39.00;;;;;;5039699;28;20226;-82
2022/08/12 10:10:23;;;;;;;3.15;2.63;;;28.50;39.40;;;;;;5053748;28;20199;-83
2022/08/12 10:15:38;;;;;;;2.58;2.38;;;28.60;38.20;;;;;;5049030;28;20213;-83
2022/08/12 10:18:11;;;;;;;2.33;1.90;;;28.60;37.50;;;;;;5064658;28;20226;-83
2022/08/12 10:20:43;;;;;;;2.70;2.33;;;28.70;37.20;;;;;;5056061;28;20191;-83
2022/08/12 10:23:15;;;;;;;3.47;2.33;;;28.60;36.90;;;;;;5054093;28;20203;-87
2022/08/12 10:31:17;;;;;;;2.58;2.30;;;28.80;37.20;;;;;;5056887;28;20195;-84
2022/08/12 10:33:45;;;;;;;4.03;2.65;;;28.90;37.60;;;;;;5051170;28;20202;-84
2022/08/12 10:36:14;;;;;;;3.17;2.58;;;28.90;37.20;;;;;;5055355;28;20544;-86
2022/08/12 10:38:42;;;;;;;2.65;2.42;;;29.10;37.60;;;;;;5066347;28;20225;-84
2022/08/12 10:44:01;;;;;;;3.35;2.72;;;29.00;37.70;;;;;;5057051;28;20214;-81
2022/08/12 10:46:28;;;;;;;3.00;2.70;;;29.10;37.90;;;;;;5051859;28;20198;-81
2022/08/12 10:48:56;;;;;;;2.67;2.47;;;29.20;37.80;;;;;;5045558;28;20230;-81
2022/08/12 10:51:24;;;;;;;4.70;3.03;;;29.30;37.90;;;;;;5061423;28;20194;-81
2022/08/12 10:53:54;;;;;;;2.80;2.60;;;29.40;37.40;;;;;;5054196;28;20200;-81
2022/08/12 10:56:22;;;;;;;3.50;2.65;;;29.50;37.40;;;;;;5071399;28;20206;-81
2022/08/12 10:58:50;;;;;;;3.25;2.95;;;29.40;37.60;;;;;;5059288;28;20222;-81
2022/08/12 11:01:19;;;;;;;3.15;2.78;;;29.70;37.90;;;;;;5061187;28;20237;-80
2022/08/12 11:03:48;;;;;;;3.10;2.63;;;29.70;37.10;;;;;;5071321;28;20685;-80
2022/08/12 11:06:17;;;;;;;3.78;2.45;;;29.70;36.40;;;;;;5065333;28;20209;-80
2022/08/12 11:08:45;;;;;;;5.05;2.92;;;29.70;37.00;;;;;;5058877;28;20591;-80
2022/08/12 11:11:16;;;;;;;3.65;2.88;;;29.80;36.60;;;;;;5055752;28;20194;-80
2022/08/12 11:13:45;;;;;;;4.68;2.53;;;29.70;37.00;;;;;;5048338;28;20214;-80
2022/08/12 11:16:15;;;;;;;2.95;2.60;;;29.80;36.60;;;;;;5052064;28;20195;-81
2022/08/12 11:18:44;;;;;;;3.95;2.58;;;29.80;36.10;;;;;;5058300;28;20725;-80
2022/08/12 11:21:13;;;;;;;3.47;2.47;;;29.90;35.80;;;;;;5054528;28;20198;-80
2022/08/12 11:23:40;;;;;;;3.13;2.50;;;30.00;35.00;;;;;;5044551;28;20209;-80
2022/08/12 11:26:08;;;;;;;4.53;2.47;;;30.10;33.70;;;;;;5055232;28;20201;-81
2022/08/12 11:28:38;;;;;;;2.65;2.42;;;30.10;33.90;;;;;;5048417;28;20222;-79
2022/08/12 11:31:08;;;;;;;4.70;2.63;;;30.20;33.60;;;;;;5051811;28;20205;-80
2022/08/12 11:33:38;;;;;;;2.95;2.55;;;30.10;33.60;;;;;;5059031;28;20206;-80
2022/08/12 11:36:08;;;;;;;2.70;2.50;;;30.30;34.40;;;;;;5056836;28;20198;-80
2022/08/12 11:38:36;;;;;;;2.67;2.47;;;30.30;34.40;;;;;;5059243;28;20207;-80
2022/08/12 11:41:04;;;;;;;3.97;2.83;;;30.40;33.90;;;;;;5043756;28;20214;-81
2022/08/12 11:43:33;;;;;;;3.13;2.58;;;30.30;34.10;;;;;;5075952;28;20201;-80
2022/08/12 11:46:00;;;;;;;3.15;2.50;;;30.30;34.40;;;;;;5055227;28;20222;-80
2022/08/12 11:48:28;;;;;;;3.17;2.13;;;30.20;33.90;;;;;;5060286;28;20213;-80
2022/08/12 11:50:56;;;;;;;4.80;2.63;;;30.40;34.40;;;;;;5060800;28;20210;-80
2022/08/12 11:53:25;;;;;;;3.05;2.50;;;30.50;34.80;;;;;;5045528;28;20195;-80
2022/08/12 11:55:52;;;;;;;3.15;2.85;;;30.50;33.60;;;;;;5064448;28;20197;-80
2022/08/12 11:58:20;;;;;;;2.75;2.55;;;30.60;33.50;;;;;;5068946;28;20225;-80
2022/08/12 12:00:48;;;;;;;3.35;2.40;;;30.40;33.20;;;;;;5054553;28;20205;-80
2022/08/12 12:03:15;;;;;;;3.50;2.13;;;30.50;33.60;;;;;;5054580;28;20201;-79
2022/08/12 12:05:43;;;;;;;4.90;2.67;;;30.60;33.50;;;;;;5057492;28;20209;-80
2022/08/12 12:08:19;;;;;;;2.17;2.00;;;30.80;32.70;;;;;;5058866;28;20214;-80
2022/08/12 12:10:49;;;;;;;2.30;2.10;;;30.90;32.40;;;;;;5056837;28;20193;-80
2022/08/12 12:13:16;;;;;;;2.78;2.45;;;30.80;31.60;;;;;;5061337;28;20221;-80
2022/08/12 12:15:44;;;;;;;3.95;2.20;;;30.90;31.70;;;;;;5067415;28;20200;-79
2022/08/12 12:18:21;;;;;;;2.65;1.73;;;30.80;29.10;;;;;;5060618;28;20222;-80
2022/08/12 12:20:49;;;;;;;4.90;2.00;;;31.00;28.80;;;;;;5079016;28;20559;-80
2022/08/12 12:23:17;;;;;;;3.47;1.70;;;31.40;28.40;;;;;;5048059;28;20578;-80
2022/08/12 12:25:46;;;;;;;2.53;1.80;;;31.50;27.60;;;;;;5059693;28;20207;-81
2022/08/12 12:28:14;;;;;;;3.38;1.70;;;31.70;27.60;;;;;;5059079;28;20211;-80
2022/08/12 12:30:43;;;;;;;2.42;1.60;;;31.70;27.20;;;;;;5064569;28;20686;-80
2022/08/12 12:33:12;;;;;;;2.05;1.85;;;31.70;26.80;;;;;;5060950;28;20198;-80
2022/08/12 12:35:53;;;;;;;1.70;1.60;;;31.80;27.30;;;;;;5052852;28;20201;-80
2022/08/12 12:38:20;;;;;;;2.50;1.77;;;31.90;27.20;;;;;;5077482;28;20233;-80
2022/08/12 12:40:49;;;;;;;2.92;2.17;;;32.10;27.50;;;;;;5059526;28;20198;-79
2022/08/12 12:43:18;;;;;;;2.15;1.67;;;32.00;27.00;;;;;;5053167;28;20203;-79
2022/08/12 12:45:47;;;;;;;2.65;1.50;;;32.00;26.60;;;;;;5058450;28;20227;-80
2022/08/12 12:48:16;;;;;;;2.58;2.20;;;32.20;26.80;;;;;;5049669;28;20223;-80
2022/08/12 12:50:46;;;;;;;2.20;1.95;;;32.30;27.50;;;;;;5072419;28;20201;-80
2022/08/12 12:53:20;;;;;;;1.90;1.80;;;32.50;27.30;;;;;;5056830;28;20202;-80
2022/08/12 12:55:49;;;;;;;3.15;1.63;;;32.40;27.00;;;;;;5060484;28;20208;-80
2022/08/12 12:58:17;;;;;;;3.03;2.03;;;32.50;27.20;;;;;;5067293;28;20218;-80
2022/08/12 13:00:45;;;;;;;2.25;2.00;;;32.60;27.20;;;;;;5058523;28;20199;-80
2022/08/12 13:03:17;;;;;;;1.92;1.67;;;32.40;27.30;;;;;;5055235;28;20194;-80
2022/08/12 13:05:44;;;;;;;2.45;1.60;;;32.80;27.10;;;;;;5069476;28;20210;-79
2022/08/12 13:08:23;;;;;;;2.05;1.92;;;32.90;27.30;;;;;;5017103;28;20253;-80
2022/08/12 13:10:53;;;;;;;1.90;1.80;;;32.90;26.40;;;;;;5047316;28;20194;-80
2022/08/12 13:13:21;;;;;;;3.20;1.85;;;32.80;26.80;;;;;;5046535;28;20214;-80
2022/08/12 13:15:49;;;;;;;2.35;1.73;;;33.20;27.10;;;;;;5043754;28;20187;-80
2022/08/12 13:18:17;;;;;;;1.83;1.73;;;33.50;26.50;;;;;;5040061;28;20233;-80
2022/08/12 13:20:46;;;;;;;2.10;1.70;;;33.50;25.60;;;;;;5047003;28;20187;-80
2022/08/12 13:23:16;;;;;;;1.95;1.75;;;33.40;26.30;;;;;;5041756;28;20556;-80
2022/08/12 13:25:44;;;;;;;2.53;2.33;;;33.60;26.10;;;;;;5046893;28;20222;-80
2022/08/12 13:28:22;;;;;;;2.00;1.90;;;33.60;25.90;;;;;;5041312;28;20222;-80
2022/08/12 13:30:51;;;;;;;2.00;1.63;;;34.00;25.90;;;;;;5034213;28;20550;-80
2022/08/12 13:33:24;;;;;;;2.88;1.70;;;33.20;25.10;;;;;;5041099;28;20214;-80
2022/08/12 13:36:02;;;;;;;3.10;1.77;;;33.50;25.00;;;;;;5045972;28;20197;-80
2022/08/12 13:38:37;;;;;;;1.80;1.70;;;33.50;25.70;;;;;;5046326;28;20704;-80
2022/08/12 13:41:31;;;;;;;4.80;1.90;;;33.60;25.00;;;;;;5057258;28;20205;-80
2022/08/12 13:44:05;;;;;;;4.90;1.90;;;33.70;24.70;;;;;;5040000;28;21062;-80
2022/08/12 13:46:36;;;;;;;1.55;1.45;;;33.50;24.50;;;;;;5050263;28;20544;-80
2022/08/12 13:49:06;;;;;;;2.38;2.05;;;33.40;25.10;;;;;;5049737;28;20217;-80
2022/08/12 13:51:34;;;;;;;3.70;1.90;;;33.20;25.40;;;;;;5043840;28;20212;-80
2022/08/12 13:54:03;;;;;;;2.40;2.15;;;33.60;25.10;;;;;;5045356;28;20676;-80
2022/08/12 13:56:32;;;;;;;2.05;1.85;;;33.80;24.60;;;;;;5046183;28;20657;-80
2022/08/12 13:59:06;;;;;;;3.05;2.17;;;33.70;25.70;;;;;;5039214;28;20223;-80
2022/08/12 14:01:36;;;;;;;6.05;2.15;;;34.00;25.10;;;;;;5039651;28;20202;-80
2022/08/12 14:04:12;;;;;;;2.45;1.80;;;34.30;24.70;;;;;;5043017;28;20202;-80
2022/08/12 14:06:49;;;;;;;2.00;1.80;;;33.90;25.10;;;;;;5046237;28;20214;-80
2022/08/12 14:09:17;;;;;;;2.10;1.90;;;33.80;25.00;;;;;;5040986;28;20198;-80
2022/08/12 14:11:44;;;;;;;2.80;1.65;;;34.10;25.00;;;;;;5044242;28;20210;-80
2022/08/12 14:14:14;;;;;;;1.95;1.73;;;34.20;25.20;;;;;;5047244;28;20205;-81
2022/08/12 14:16:42;;;;;;;2.47;2.28;;;33.90;25.30;;;;;;5043805;28;20197;-80
2022/08/12 14:19:09;;;;;;;2.97;1.73;;;33.70;25.20;;;;;;5049211;28;20203;-80
2022/08/12 14:21:37;;;;;;;2.15;1.80;;;34.10;25.60;;;;;;5043568;28;20554;-80
2022/08/12 14:24:07;;;;;;;2.13;1.98;;;34.60;25.10;;;;;;5042559;28;20210;-80
2022/08/12 14:26:35;;;;;;;4.43;1.80;;;34.30;25.50;;;;;;5047300;28;20217;-80
2022/08/12 14:29:03;;;;;;;3.83;1.90;;;34.60;25.10;;;;;;5057607;28;20230;-80
2022/08/12 14:31:32;;;;;;;1.70;1.60;;;35.10;25.00;;;;;;5041248;28;20597;-80
2022/08/12 14:34:00;;;;;;;3.95;2.08;;;34.90;24.60;;;;;;5042645;28;20190;-79
2022/08/12 14:36:28;;;;;;;5.07;2.20;;;34.50;24.80;;;;;;5044344;28;20206;-80
2022/08/12 14:38:58;;;;;;;3.90;1.80;;;34.70;24.70;;;;;;5043742;28;20223;-80
2022/08/12 14:41:26;;;;;;;2.63;2.08;;;34.60;25.00;;;;;;5042739;28;20198;-80
2022/08/12 14:43:54;;;;;;;2.75;1.90;;;34.40;24.60;;;;;;5044123;28;20222;-79
2022/08/12 14:46:26;;;;;;;2.78;1.70;;;33.90;25.60;;;;;;5043510;28;20215;-80
2022/08/12 14:48:54;;;;;;;3.30;1.77;;;34.00;25.30;;;;;;5043326;28;20250;-80
2022/08/12 14:51:24;;;;;;;3.22;1.80;;;34.10;25.90;;;;;;5043189;28;20206;-80